sensor_id;sensor_type;location;lat;lon;timestamp;P1;durP1;ratioP1;P2;durP2;ratioP2
37895;SDS011;23733;53.254;10.430;2024-03-08T00:00:16;21.20;;;11.10;;
37895;SDS011;23733;53.254;10.430;2024-03-08T00:02:46;15.93;;;10.73;;
37895;SDS011;23733;53.254;10.430;2024-03-08T00:05:13;19.30;;;11.87;;
37895;SDS011;23733;53.254;10.430;2024-03-08T00:07:40;18.03;;;11.07;;
37895;SDS011;23733;53.254;10.430;2024-03-08T00:10:07;19.77;;;11.47;;
37895;SDS011;23733;53.254;10.430;2024-03-08T00:12:41;21.27;;;11.27;;
37895;SDS011;23733;53.254;10.430;2024-03-08T00:15:08;20.57;;;11.93;;
37895;SDS011;23733;53.254;10.430;2024-03-08T00:17:36;17.63;;;10.73;;
37895;SDS011;23733;53.254;10.430;2024-03-08T00:20:03;18.67;;;11.43;;
37895;SDS011;23733;53.254;10.430;2024-03-08T00:22:30;17.93;;;11.13;;
37895;SDS011;23733;53.254;10.430;2024-03-08T00:24:56;19.37;;;10.60;;
37895;SDS011;23733;53.254;10.430;2024-03-08T00:27:23;18.70;;;9.97;;
37895;SDS011;23733;53.254;10.430;2024-03-08T00:29:49;18.43;;;10.53;;
37895;SDS011;23733;53.254;10.430;2024-03-08T00:32:16;16.10;;;10.27;;
37895;SDS011;23733;53.254;10.430;2024-03-08T00:34:42;19.00;;;10.57;;
37895;SDS011;23733;53.254;10.430;2024-03-08T00:37:09;17.50;;;10.47;;
37895;SDS011;23733;53.254;10.430;2024-03-08T00:39:35;15.47;;;9.80;;
37895;SDS011;23733;53.254;10.430;2024-03-08T00:42:01;19.97;;;10.70;;
37895;SDS011;23733;53.254;10.430;2024-03-08T00:44:28;17.73;;;10.67;;
37895;SDS011;23733;53.254;10.430;2024-03-08T00:46:54;19.20;;;10.93;;
37895;SDS011;23733;53.254;10.430;2024-03-08T00:49:21;19.37;;;11.43;;
37895;SDS011;23733;53.254;10.430;2024-03-08T00:51:48;18.83;;;10.57;;
37895;SDS011;23733;53.254;10.430;2024-03-08T00:54:14;19.57;;;10.50;;
37895;SDS011;23733;53.254;10.430;2024-03-08T00:56:42;17.27;;;11.00;;
37895;SDS011;23733;53.254;10.430;2024-03-08T00:59:08;17.97;;;10.57;;
37895;SDS011;23733;53.254;10.430;2024-03-08T01:01:34;19.33;;;11.37;;
37895;SDS011;23733;53.254;10.430;2024-03-08T01:04:00;21.47;;;10.70;;
37895;SDS011;23733;53.254;10.430;2024-03-08T01:06:27;17.47;;;9.87;;
37895;SDS011;23733;53.254;10.430;2024-03-08T01:08:53;21.30;;;11.33;;
37895;SDS011;23733;53.254;10.430;2024-03-08T01:11:19;20.73;;;11.70;;
37895;SDS011;23733;53.254;10.430;2024-03-08T01:13:46;18.97;;;11.17;;
37895;SDS011;23733;53.254;10.430;2024-03-08T01:16:12;17.17;;;10.70;;
37895;SDS011;23733;53.254;10.430;2024-03-08T01:18:39;21.23;;;11.90;;
37895;SDS011;23733;53.254;10.430;2024-03-08T01:21:05;18.97;;;11.10;;
37895;SDS011;23733;53.254;10.430;2024-03-08T01:23:31;17.57;;;10.03;;
37895;SDS011;23733;53.254;10.430;2024-03-08T01:25:58;18.73;;;10.90;;
37895;SDS011;23733;53.254;10.430;2024-03-08T01:28:25;19.20;;;10.73;;
37895;SDS011;23733;53.254;10.430;2024-03-08T01:30:52;18.67;;;11.57;;
37895;SDS011;23733;53.254;10.430;2024-03-08T01:33:22;16.10;;;10.23;;
37895;SDS011;23733;53.254;10.430;2024-03-08T01:35:48;17.50;;;10.13;;
37895;SDS011;23733;53.254;10.430;2024-03-08T01:38:14;19.77;;;10.30;;
37895;SDS011;23733;53.254;10.430;2024-03-08T01:40:41;19.60;;;11.23;;
37895;SDS011;23733;53.254;10.430;2024-03-08T01:45:42;21.97;;;11.70;;
37895;SDS011;23733;53.254;10.430;2024-03-08T01:48:09;17.43;;;11.30;;
37895;SDS011;23733;53.254;10.430;2024-03-08T01:50:35;20.63;;;11.50;;
37895;SDS011;23733;53.254;10.430;2024-03-08T01:53:05;18.80;;;10.97;;
37895;SDS011;23733;53.254;10.430;2024-03-08T01:55:32;20.13;;;11.27;;
37895;SDS011;23733;53.254;10.430;2024-03-08T01:57:58;19.87;;;11.10;;
37895;SDS011;23733;53.254;10.430;2024-03-08T02:00:25;16.53;;;10.23;;
37895;SDS011;23733;53.254;10.430;2024-03-08T02:02:55;17.83;;;10.17;;
37895;SDS011;23733;53.254;10.430;2024-03-08T02:05:22;17.33;;;10.77;;
37895;SDS011;23733;53.254;10.430;2024-03-08T02:07:49;21.47;;;11.30;;
37895;SDS011;23733;53.254;10.430;2024-03-08T02:10:15;18.93;;;11.03;;
37895;SDS011;23733;53.254;10.430;2024-03-08T02:12:41;21.67;;;12.30;;
37895;SDS011;23733;53.254;10.430;2024-03-08T02:15:08;22.13;;;12.10;;
37895;SDS011;23733;53.254;10.430;2024-03-08T02:17:35;20.17;;;10.33;;
37895;SDS011;23733;53.254;10.430;2024-03-08T02:20:03;18.77;;;10.23;;
37895;SDS011;23733;53.254;10.430;2024-03-08T02:22:30;17.33;;;10.30;;
37895;SDS011;23733;53.254;10.430;2024-03-08T02:24:59;19.40;;;10.33;;
37895;SDS011;23733;53.254;10.430;2024-03-08T02:27:27;19.50;;;11.40;;
37895;SDS011;23733;53.254;10.430;2024-03-08T02:29:55;17.80;;;10.63;;
37895;SDS011;23733;53.254;10.430;2024-03-08T02:32:25;17.83;;;9.90;;
37895;SDS011;23733;53.254;10.430;2024-03-08T02:34:51;21.97;;;11.17;;
37895;SDS011;23733;53.254;10.430;2024-03-08T02:37:22;17.90;;;10.17;;
37895;SDS011;23733;53.254;10.430;2024-03-08T02:39:48;19.33;;;10.70;;
37895;SDS011;23733;53.254;10.430;2024-03-08T02:42:14;17.20;;;10.37;;
37895;SDS011;23733;53.254;10.430;2024-03-08T02:44:44;18.57;;;10.57;;
37895;SDS011;23733;53.254;10.430;2024-03-08T02:47:10;19.53;;;11.37;;
37895;SDS011;23733;53.254;10.430;2024-03-08T02:49:36;19.63;;;11.00;;
37895;SDS011;23733;53.254;10.430;2024-03-08T02:52:03;21.27;;;11.30;;
37895;SDS011;23733;53.254;10.430;2024-03-08T02:54:30;18.97;;;10.50;;
37895;SDS011;23733;53.254;10.430;2024-03-08T02:56:56;19.17;;;11.00;;
37895;SDS011;23733;53.254;10.430;2024-03-08T02:59:23;18.37;;;10.43;;
37895;SDS011;23733;53.254;10.430;2024-03-08T03:01:49;18.43;;;11.00;;
37895;SDS011;23733;53.254;10.430;2024-03-08T03:04:16;21.20;;;11.87;;
37895;SDS011;23733;53.254;10.430;2024-03-08T03:06:42;21.47;;;11.40;;
37895;SDS011;23733;53.254;10.430;2024-03-08T03:09:08;20.70;;;10.93;;
37895;SDS011;23733;53.254;10.430;2024-03-08T03:11:35;23.07;;;12.00;;
37895;SDS011;23733;53.254;10.430;2024-03-08T03:14:02;20.43;;;10.70;;
37895;SDS011;23733;53.254;10.430;2024-03-08T03:16:29;21.60;;;11.43;;
37895;SDS011;23733;53.254;10.430;2024-03-08T03:18:56;19.77;;;10.97;;
37895;SDS011;23733;53.254;10.430;2024-03-08T03:21:24;19.47;;;11.23;;
37895;SDS011;23733;53.254;10.430;2024-03-08T03:23:50;20.90;;;11.23;;
37895;SDS011;23733;53.254;10.430;2024-03-08T03:26:18;22.97;;;11.37;;
37895;SDS011;23733;53.254;10.430;2024-03-08T03:28:44;20.07;;;10.90;;
37895;SDS011;23733;53.254;10.430;2024-03-08T03:31:10;20.20;;;10.77;;
37895;SDS011;23733;53.254;10.430;2024-03-08T03:33:39;21.37;;;12.20;;
37895;SDS011;23733;53.254;10.430;2024-03-08T03:36:06;19.17;;;11.10;;
37895;SDS011;23733;53.254;10.430;2024-03-08T03:38:35;22.50;;;11.83;;
37895;SDS011;23733;53.254;10.430;2024-03-08T03:41:01;25.37;;;11.43;;
37895;SDS011;23733;53.254;10.430;2024-03-08T03:43:35;22.30;;;11.87;;
37895;SDS011;23733;53.254;10.430;2024-03-08T03:46:07;21.67;;;10.93;;
37895;SDS011;23733;53.254;10.430;2024-03-08T03:48:35;20.63;;;11.63;;
37895;SDS011;23733;53.254;10.430;2024-03-08T03:51:02;19.60;;;11.53;;
37895;SDS011;23733;53.254;10.430;2024-03-08T03:53:29;22.03;;;11.57;;
37895;SDS011;23733;53.254;10.430;2024-03-08T03:55:55;20.67;;;11.23;;
37895;SDS011;23733;53.254;10.430;2024-03-08T03:58:22;20.93;;;11.60;;
37895;SDS011;23733;53.254;10.430;2024-03-08T04:00:48;20.20;;;10.90;;
37895;SDS011;23733;53.254;10.430;2024-03-08T04:03:15;22.23;;;11.77;;
37895;SDS011;23733;53.254;10.430;2024-03-08T04:05:42;23.97;;;12.10;;
37895;SDS011;23733;53.254;10.430;2024-03-08T04:08:08;22.97;;;11.17;;
37895;SDS011;23733;53.254;10.430;2024-03-08T04:10:34;20.67;;;11.80;;
37895;SDS011;23733;53.254;10.430;2024-03-08T04:13:01;21.37;;;11.77;;
37895;SDS011;23733;53.254;10.430;2024-03-08T04:15:29;21.60;;;11.67;;
37895;SDS011;23733;53.254;10.430;2024-03-08T04:17:55;18.77;;;11.07;;
37895;SDS011;23733;53.254;10.430;2024-03-08T04:20:22;23.40;;;12.67;;
37895;SDS011;23733;53.254;10.430;2024-03-08T04:22:48;23.00;;;12.20;;
37895;SDS011;23733;53.254;10.430;2024-03-08T04:25:15;21.47;;;11.20;;
37895;SDS011;23733;53.254;10.430;2024-03-08T04:27:41;20.13;;;11.23;;
37895;SDS011;23733;53.254;10.430;2024-03-08T04:30:07;22.83;;;12.40;;
37895;SDS011;23733;53.254;10.430;2024-03-08T04:32:34;21.33;;;12.70;;
37895;SDS011;23733;53.254;10.430;2024-03-08T04:35:00;20.93;;;11.13;;
37895;SDS011;23733;53.254;10.430;2024-03-08T04:37:27;20.77;;;11.77;;
37895;SDS011;23733;53.254;10.430;2024-03-08T04:39:57;21.97;;;11.50;;
37895;SDS011;23733;53.254;10.430;2024-03-08T04:42:23;22.13;;;11.73;;
37895;SDS011;23733;53.254;10.430;2024-03-08T04:44:50;20.13;;;11.50;;
37895;SDS011;23733;53.254;10.430;2024-03-08T04:47:18;24.57;;;11.90;;
37895;SDS011;23733;53.254;10.430;2024-03-08T04:49:45;23.47;;;12.47;;
37895;SDS011;23733;53.254;10.430;2024-03-08T04:52:12;20.60;;;11.70;;
37895;SDS011;23733;53.254;10.430;2024-03-08T04:54:38;22.47;;;11.93;;
37895;SDS011;23733;53.254;10.430;2024-03-08T04:57:04;21.50;;;12.37;;
37895;SDS011;23733;53.254;10.430;2024-03-08T04:59:31;19.27;;;11.57;;
37895;SDS011;23733;53.254;10.430;2024-03-08T05:01:57;25.87;;;12.60;;
37895;SDS011;23733;53.254;10.430;2024-03-08T05:04:23;21.30;;;11.90;;
37895;SDS011;23733;53.254;10.430;2024-03-08T05:06:50;21.57;;;11.63;;
37895;SDS011;23733;53.254;10.430;2024-03-08T05:09:16;22.90;;;12.97;;
37895;SDS011;23733;53.254;10.430;2024-03-08T05:11:44;24.87;;;11.93;;
37895;SDS011;23733;53.254;10.430;2024-03-08T05:14:11;21.63;;;12.87;;
37895;SDS011;23733;53.254;10.430;2024-03-08T05:16:45;23.50;;;12.87;;
37895;SDS011;23733;53.254;10.430;2024-03-08T05:19:15;24.73;;;12.10;;
37895;SDS011;23733;53.254;10.430;2024-03-08T05:21:45;24.17;;;12.77;;
37895;SDS011;23733;53.254;10.430;2024-03-08T05:24:11;23.87;;;12.57;;
37895;SDS011;23733;53.254;10.430;2024-03-08T05:26:38;22.60;;;12.37;;
37895;SDS011;23733;53.254;10.430;2024-03-08T05:29:05;23.63;;;12.93;;
37895;SDS011;23733;53.254;10.430;2024-03-08T05:31:53;26.53;;;13.10;;
37895;SDS011;23733;53.254;10.430;2024-03-08T05:34:18;24.47;;;13.40;;
37895;SDS011;23733;53.254;10.430;2024-03-08T05:36:45;22.13;;;12.67;;
37895;SDS011;23733;53.254;10.430;2024-03-08T05:39:12;22.83;;;12.47;;
37895;SDS011;23733;53.254;10.430;2024-03-08T05:41:39;24.03;;;12.90;;
37895;SDS011;23733;53.254;10.430;2024-03-08T05:44:05;24.17;;;12.70;;
37895;SDS011;23733;53.254;10.430;2024-03-08T05:46:32;24.17;;;13.13;;
37895;SDS011;23733;53.254;10.430;2024-03-08T05:48:58;24.23;;;12.47;;
37895;SDS011;23733;53.254;10.430;2024-03-08T05:51:24;26.33;;;12.97;;
37895;SDS011;23733;53.254;10.430;2024-03-08T05:53:54;28.00;;;12.73;;
37895;SDS011;23733;53.254;10.430;2024-03-08T05:56:21;24.60;;;11.73;;
37895;SDS011;23733;53.254;10.430;2024-03-08T05:58:48;21.93;;;12.47;;
37895;SDS011;23733;53.254;10.430;2024-03-08T06:01:15;21.63;;;12.67;;
37895;SDS011;23733;53.254;10.430;2024-03-08T06:03:41;24.93;;;12.97;;
37895;SDS011;23733;53.254;10.430;2024-03-08T06:06:12;23.67;;;12.70;;
37895;SDS011;23733;53.254;10.430;2024-03-08T06:08:39;26.63;;;13.90;;
37895;SDS011;23733;53.254;10.430;2024-03-08T06:11:08;26.67;;;13.67;;
37895;SDS011;23733;53.254;10.430;2024-03-08T06:13:34;21.87;;;12.53;;
37895;SDS011;23733;53.254;10.430;2024-03-08T06:16:01;22.57;;;12.93;;
37895;SDS011;23733;53.254;10.430;2024-03-08T06:18:33;27.77;;;12.90;;
37895;SDS011;23733;53.254;10.430;2024-03-08T06:21:02;22.63;;;12.93;;
37895;SDS011;23733;53.254;10.430;2024-03-08T06:23:31;23.83;;;12.00;;
37895;SDS011;23733;53.254;10.430;2024-03-08T06:25:57;20.77;;;12.03;;
37895;SDS011;23733;53.254;10.430;2024-03-08T06:28:24;23.90;;;12.93;;
37895;SDS011;23733;53.254;10.430;2024-03-08T06:30:51;27.87;;;12.67;;
37895;SDS011;23733;53.254;10.430;2024-03-08T06:33:17;24.43;;;12.23;;
37895;SDS011;23733;53.254;10.430;2024-03-08T06:35:44;23.37;;;12.47;;
37895;SDS011;23733;53.254;10.430;2024-03-08T06:38:10;22.77;;;12.47;;
37895;SDS011;23733;53.254;10.430;2024-03-08T06:40:37;22.10;;;11.50;;
37895;SDS011;23733;53.254;10.430;2024-03-08T06:43:03;25.60;;;14.47;;
37895;SDS011;23733;53.254;10.430;2024-03-08T06:45:31;22.67;;;12.50;;
37895;SDS011;23733;53.254;10.430;2024-03-08T06:47:58;22.80;;;13.07;;
37895;SDS011;23733;53.254;10.430;2024-03-08T06:50:24;25.57;;;13.70;;
37895;SDS011;23733;53.254;10.430;2024-03-08T06:52:50;24.13;;;14.23;;
37895;SDS011;23733;53.254;10.430;2024-03-08T06:55:19;25.40;;;12.70;;
37895;SDS011;23733;53.254;10.430;2024-03-08T06:57:46;22.70;;;12.30;;
37895;SDS011;23733;53.254;10.430;2024-03-08T07:00:12;25.77;;;13.67;;
37895;SDS011;23733;53.254;10.430;2024-03-08T07:02:44;21.87;;;12.57;;
37895;SDS011;23733;53.254;10.430;2024-03-08T07:05:19;25.07;;;14.23;;
37895;SDS011;23733;53.254;10.430;2024-03-08T07:07:45;24.90;;;13.87;;
37895;SDS011;23733;53.254;10.430;2024-03-08T07:10:16;25.17;;;13.17;;
37895;SDS011;23733;53.254;10.430;2024-03-08T07:12:42;25.03;;;12.60;;
37895;SDS011;23733;53.254;10.430;2024-03-08T07:15:09;25.57;;;12.87;;
37895;SDS011;23733;53.254;10.430;2024-03-08T07:17:39;26.43;;;13.27;;
37895;SDS011;23733;53.254;10.430;2024-03-08T07:20:06;25.50;;;13.37;;
37895;SDS011;23733;53.254;10.430;2024-03-08T07:22:37;25.37;;;12.67;;
37895;SDS011;23733;53.254;10.430;2024-03-08T07:25:05;24.43;;;13.33;;
37895;SDS011;23733;53.254;10.430;2024-03-08T07:27:47;23.77;;;12.37;;
37895;SDS011;23733;53.254;10.430;2024-03-08T07:30:14;22.57;;;13.33;;
37895;SDS011;23733;53.254;10.430;2024-03-08T07:32:59;27.73;;;13.90;;
37895;SDS011;23733;53.254;10.430;2024-03-08T07:35:28;25.27;;;13.97;;
37895;SDS011;23733;53.254;10.430;2024-03-08T07:37:54;30.43;;;14.87;;
37895;SDS011;23733;53.254;10.430;2024-03-08T07:40:21;26.97;;;13.00;;
37895;SDS011;23733;53.254;10.430;2024-03-08T07:42:48;27.33;;;13.03;;
37895;SDS011;23733;53.254;10.430;2024-03-08T07:45:18;25.17;;;13.50;;
37895;SDS011;23733;53.254;10.430;2024-03-08T07:47:44;25.30;;;13.43;;
37895;SDS011;23733;53.254;10.430;2024-03-08T07:50:11;23.90;;;13.53;;
37895;SDS011;23733;53.254;10.430;2024-03-08T07:52:41;24.83;;;12.67;;
37895;SDS011;23733;53.254;10.430;2024-03-08T07:55:08;26.93;;;13.63;;
37895;SDS011;23733;53.254;10.430;2024-03-08T07:57:35;25.17;;;13.10;;
37895;SDS011;23733;53.254;10.430;2024-03-08T08:00:05;25.40;;;13.63;;
37895;SDS011;23733;53.254;10.430;2024-03-08T08:02:34;24.70;;;13.23;;
37895;SDS011;23733;53.254;10.430;2024-03-08T08:05:01;25.87;;;13.70;;
37895;SDS011;23733;53.254;10.430;2024-03-08T08:07:29;25.13;;;13.33;;
37895;SDS011;23733;53.254;10.430;2024-03-08T08:09:55;24.90;;;13.10;;
37895;SDS011;23733;53.254;10.430;2024-03-08T08:12:21;24.80;;;13.63;;
37895;SDS011;23733;53.254;10.430;2024-03-08T08:14:47;21.80;;;13.27;;
37895;SDS011;23733;53.254;10.430;2024-03-08T08:17:14;25.57;;;13.37;;
37895;SDS011;23733;53.254;10.430;2024-03-08T08:19:40;29.17;;;13.03;;
37895;SDS011;23733;53.254;10.430;2024-03-08T08:22:07;25.43;;;13.67;;
37895;SDS011;23733;53.254;10.430;2024-03-08T08:24:34;27.13;;;13.63;;
37895;SDS011;23733;53.254;10.430;2024-03-08T08:27:02;25.13;;;14.00;;
37895;SDS011;23733;53.254;10.430;2024-03-08T08:29:28;25.17;;;13.53;;
37895;SDS011;23733;53.254;10.430;2024-03-08T08:31:57;28.27;;;14.60;;
37895;SDS011;23733;53.254;10.430;2024-03-08T08:34:25;26.00;;;13.43;;
37895;SDS011;23733;53.254;10.430;2024-03-08T08:36:52;26.80;;;14.70;;
37895;SDS011;23733;53.254;10.430;2024-03-08T08:39:18;24.80;;;13.57;;
37895;SDS011;23733;53.254;10.430;2024-03-08T08:41:45;28.13;;;13.60;;
37895;SDS011;23733;53.254;10.430;2024-03-08T08:44:11;23.23;;;14.03;;
37895;SDS011;23733;53.254;10.430;2024-03-08T08:46:38;26.70;;;13.87;;
37895;SDS011;23733;53.254;10.430;2024-03-08T08:49:04;27.80;;;14.43;;
37895;SDS011;23733;53.254;10.430;2024-03-08T08:51:32;25.50;;;13.87;;
37895;SDS011;23733;53.254;10.430;2024-03-08T08:53:59;25.73;;;13.50;;
37895;SDS011;23733;53.254;10.430;2024-03-08T08:56:25;25.40;;;13.50;;
37895;SDS011;23733;53.254;10.430;2024-03-08T08:58:52;22.60;;;13.23;;
37895;SDS011;23733;53.254;10.430;2024-03-08T09:01:22;26.87;;;13.53;;
37895;SDS011;23733;53.254;10.430;2024-03-08T09:03:48;29.47;;;14.33;;
37895;SDS011;23733;53.254;10.430;2024-03-08T09:06:15;27.47;;;14.03;;
37895;SDS011;23733;53.254;10.430;2024-03-08T09:08:42;22.73;;;12.93;;
37895;SDS011;23733;53.254;10.430;2024-03-08T09:11:11;22.57;;;12.73;;
37895;SDS011;23733;53.254;10.430;2024-03-08T09:13:38;22.17;;;13.40;;
37895;SDS011;23733;53.254;10.430;2024-03-08T09:16:04;23.83;;;14.20;;
37895;SDS011;23733;53.254;10.430;2024-03-08T09:18:31;24.93;;;14.10;;
37895;SDS011;23733;53.254;10.430;2024-03-08T09:20:58;24.97;;;14.30;;
37895;SDS011;23733;53.254;10.430;2024-03-08T09:23:25;25.80;;;14.07;;
37895;SDS011;23733;53.254;10.430;2024-03-08T09:25:58;28.27;;;14.97;;
37895;SDS011;23733;53.254;10.430;2024-03-08T09:28:25;25.47;;;12.90;;
37895;SDS011;23733;53.254;10.430;2024-03-08T09:30:52;25.07;;;13.27;;
37895;SDS011;23733;53.254;10.430;2024-03-08T09:33:20;25.57;;;13.73;;
37895;SDS011;23733;53.254;10.430;2024-03-08T09:35:47;25.27;;;13.67;;
37895;SDS011;23733;53.254;10.430;2024-03-08T09:38:14;22.53;;;13.93;;
37895;SDS011;23733;53.254;10.430;2024-03-08T09:40:43;24.07;;;14.00;;
37895;SDS011;23733;53.254;10.430;2024-03-08T09:43:10;22.47;;;13.47;;
37895;SDS011;23733;53.254;10.430;2024-03-08T09:45:39;23.00;;;13.10;;
37895;SDS011;23733;53.254;10.430;2024-03-08T09:48:10;23.53;;;13.90;;
37895;SDS011;23733;53.254;10.430;2024-03-08T09:50:40;26.37;;;14.30;;
37895;SDS011;23733;53.254;10.430;2024-03-08T09:53:06;25.97;;;13.83;;
37895;SDS011;23733;53.254;10.430;2024-03-08T09:55:37;22.90;;;13.40;;
37895;SDS011;23733;53.254;10.430;2024-03-08T09:58:06;32.87;;;14.03;;
37895;SDS011;23733;53.254;10.430;2024-03-08T10:00:54;24.03;;;13.47;;
37895;SDS011;23733;53.254;10.430;2024-03-08T10:03:22;21.13;;;12.83;;
37895;SDS011;23733;53.254;10.430;2024-03-08T10:05:51;21.00;;;13.47;;
37895;SDS011;23733;53.254;10.430;2024-03-08T10:08:17;22.00;;;12.90;;
37895;SDS011;23733;53.254;10.430;2024-03-08T10:10:45;22.60;;;13.73;;
37895;SDS011;23733;53.254;10.430;2024-03-08T10:13:11;23.83;;;13.33;;
37895;SDS011;23733;53.254;10.430;2024-03-08T10:15:39;24.43;;;13.73;;
37895;SDS011;23733;53.254;10.430;2024-03-08T10:18:06;20.40;;;12.30;;
37895;SDS011;23733;53.254;10.430;2024-03-08T10:20:33;20.83;;;12.80;;
37895;SDS011;23733;53.254;10.430;2024-03-08T10:23:00;22.70;;;13.33;;
37895;SDS011;23733;53.254;10.430;2024-03-08T10:25:28;21.73;;;13.03;;
37895;SDS011;23733;53.254;10.430;2024-03-08T10:27:55;24.60;;;13.40;;
37895;SDS011;23733;53.254;10.430;2024-03-08T10:30:22;25.13;;;13.90;;
37895;SDS011;23733;53.254;10.430;2024-03-08T10:32:48;21.50;;;11.97;;
37895;SDS011;23733;53.254;10.430;2024-03-08T10:35:15;20.60;;;12.60;;
37895;SDS011;23733;53.254;10.430;2024-03-08T10:37:46;24.23;;;12.97;;
37895;SDS011;23733;53.254;10.430;2024-03-08T10:40:17;23.23;;;13.00;;
37895;SDS011;23733;53.254;10.430;2024-03-08T10:42:50;22.27;;;12.97;;
37895;SDS011;23733;53.254;10.430;2024-03-08T10:48:22;22.60;;;12.73;;
37895;SDS011;23733;53.254;10.430;2024-03-08T10:50:53;22.23;;;12.27;;
37895;SDS011;23733;53.254;10.430;2024-03-08T10:53:20;21.53;;;12.70;;
37895;SDS011;23733;53.254;10.430;2024-03-08T10:55:49;21.50;;;12.47;;
37895;SDS011;23733;53.254;10.430;2024-03-08T10:58:19;19.40;;;11.77;;
37895;SDS011;23733;53.254;10.430;2024-03-08T11:00:46;23.63;;;12.93;;
37895;SDS011;23733;53.254;10.430;2024-03-08T11:06:19;20.53;;;11.87;;
37895;SDS011;23733;53.254;10.430;2024-03-08T11:08:48;25.07;;;11.77;;
37895;SDS011;23733;53.254;10.430;2024-03-08T11:11:24;22.87;;;12.20;;
37895;SDS011;23733;53.254;10.430;2024-03-08T11:13:52;24.63;;;12.03;;
37895;SDS011;23733;53.254;10.430;2024-03-08T11:19:00;16.10;;;11.00;;
37895;SDS011;23733;53.254;10.430;2024-03-08T11:21:30;22.30;;;12.40;;
37895;SDS011;23733;53.254;10.430;2024-03-08T11:24:02;20.77;;;11.60;;
37895;SDS011;23733;53.254;10.430;2024-03-08T11:26:31;21.93;;;12.60;;
37895;SDS011;23733;53.254;10.430;2024-03-08T11:31:43;20.27;;;11.93;;
37895;SDS011;23733;53.254;10.430;2024-03-08T11:34:17;23.20;;;12.07;;
37895;SDS011;23733;53.254;10.430;2024-03-08T11:36:44;21.67;;;12.57;;
37895;SDS011;23733;53.254;10.430;2024-03-08T11:39:13;19.23;;;11.97;;
37895;SDS011;23733;53.254;10.430;2024-03-08T11:41:40;23.57;;;12.13;;
37895;SDS011;23733;53.254;10.430;2024-03-08T11:44:11;18.57;;;10.97;;
37895;SDS011;23733;53.254;10.430;2024-03-08T11:46:41;26.63;;;12.67;;
37895;SDS011;23733;53.254;10.430;2024-03-08T11:49:12;24.37;;;11.73;;
37895;SDS011;23733;53.254;10.430;2024-03-08T11:51:38;19.80;;;11.97;;
37895;SDS011;23733;53.254;10.430;2024-03-08T11:54:05;21.63;;;12.40;;
37895;SDS011;23733;53.254;10.430;2024-03-08T11:56:32;24.40;;;12.53;;
37895;SDS011;23733;53.254;10.430;2024-03-08T11:58:59;23.17;;;12.17;;
37895;SDS011;23733;53.254;10.430;2024-03-08T12:01:27;25.50;;;12.33;;
37895;SDS011;23733;53.254;10.430;2024-03-08T12:03:54;19.70;;;11.53;;
37895;SDS011;23733;53.254;10.430;2024-03-08T12:06:20;20.23;;;12.77;;
37895;SDS011;23733;53.254;10.430;2024-03-08T12:08:47;25.40;;;12.10;;
37895;SDS011;23733;53.254;10.430;2024-03-08T12:11:14;22.47;;;11.20;;
37895;SDS011;23733;53.254;10.430;2024-03-08T12:13:41;19.13;;;11.63;;
37895;SDS011;23733;53.254;10.430;2024-03-08T12:16:07;21.13;;;11.30;;
37895;SDS011;23733;53.254;10.430;2024-03-08T12:18:37;21.27;;;11.90;;
37895;SDS011;23733;53.254;10.430;2024-03-08T12:21:04;18.47;;;12.00;;
37895;SDS011;23733;53.254;10.430;2024-03-08T12:23:33;24.67;;;11.53;;
37895;SDS011;23733;53.254;10.430;2024-03-08T12:26:13;17.70;;;11.07;;
37895;SDS011;23733;53.254;10.430;2024-03-08T12:28:41;22.27;;;11.43;;
37895;SDS011;23733;53.254;10.430;2024-03-08T12:31:11;17.30;;;11.53;;
37895;SDS011;23733;53.254;10.430;2024-03-08T12:33:51;20.80;;;11.50;;
37895;SDS011;23733;53.254;10.430;2024-03-08T12:36:18;16.50;;;10.60;;
37895;SDS011;23733;53.254;10.430;2024-03-08T12:38:45;15.50;;;10.20;;
37895;SDS011;23733;53.254;10.430;2024-03-08T12:41:18;16.10;;;10.20;;
37895;SDS011;23733;53.254;10.430;2024-03-08T12:43:45;16.47;;;10.27;;
37895;SDS011;23733;53.254;10.430;2024-03-08T12:46:15;17.57;;;9.87;;
37895;SDS011;23733;53.254;10.430;2024-03-08T12:48:42;21.13;;;11.27;;
37895;SDS011;23733;53.254;10.430;2024-03-08T12:51:12;19.53;;;10.97;;
37895;SDS011;23733;53.254;10.430;2024-03-08T12:53:39;17.00;;;10.70;;
37895;SDS011;23733;53.254;10.430;2024-03-08T12:56:06;17.10;;;10.37;;
37895;SDS011;23733;53.254;10.430;2024-03-08T12:58:36;21.40;;;10.87;;
37895;SDS011;23733;53.254;10.430;2024-03-08T13:01:03;19.67;;;10.60;;
37895;SDS011;23733;53.254;10.430;2024-03-08T13:03:33;23.47;;;11.07;;
37895;SDS011;23733;53.254;10.430;2024-03-08T13:06:02;19.43;;;10.97;;
37895;SDS011;23733;53.254;10.430;2024-03-08T13:08:28;15.70;;;10.07;;
37895;SDS011;23733;53.254;10.430;2024-03-08T13:10:56;16.00;;;9.90;;
37895;SDS011;23733;53.254;10.430;2024-03-08T13:13:24;17.83;;;9.50;;
37895;SDS011;23733;53.254;10.430;2024-03-08T13:15:50;14.67;;;9.37;;
37895;SDS011;23733;53.254;10.430;2024-03-08T13:18:16;19.00;;;9.53;;
37895;SDS011;23733;53.254;10.430;2024-03-08T13:20:43;18.97;;;9.70;;
37895;SDS011;23733;53.254;10.430;2024-03-08T13:23:14;15.50;;;9.00;;
37895;SDS011;23733;53.254;10.430;2024-03-08T13:25:40;18.53;;;9.70;;
37895;SDS011;23733;53.254;10.430;2024-03-08T13:28:07;16.10;;;9.40;;
37895;SDS011;23733;53.254;10.430;2024-03-08T13:30:34;16.50;;;9.27;;
37895;SDS011;23733;53.254;10.430;2024-03-08T13:33:00;15.13;;;9.17;;
37895;SDS011;23733;53.254;10.430;2024-03-08T13:35:30;17.03;;;8.63;;
37895;SDS011;23733;53.254;10.430;2024-03-08T13:37:57;14.17;;;8.07;;
37895;SDS011;23733;53.254;10.430;2024-03-08T13:40:24;13.63;;;8.30;;
37895;SDS011;23733;53.254;10.430;2024-03-08T13:42:51;14.17;;;8.37;;
37895;SDS011;23733;53.254;10.430;2024-03-08T13:45:17;15.17;;;8.57;;
37895;SDS011;23733;53.254;10.430;2024-03-08T13:47:47;16.47;;;7.90;;
37895;SDS011;23733;53.254;10.430;2024-03-08T13:50:16;16.27;;;8.60;;
37895;SDS011;23733;53.254;10.430;2024-03-08T13:52:47;13.70;;;8.47;;
37895;SDS011;23733;53.254;10.430;2024-03-08T13:55:17;16.17;;;8.37;;
37895;SDS011;23733;53.254;10.430;2024-03-08T13:57:43;14.70;;;8.77;;
37895;SDS011;23733;53.254;10.430;2024-03-08T14:00:11;22.23;;;9.17;;
37895;SDS011;23733;53.254;10.430;2024-03-08T14:02:38;18.67;;;7.90;;
37895;SDS011;23733;53.254;10.430;2024-03-08T14:05:06;16.47;;;8.13;;
37895;SDS011;23733;53.254;10.430;2024-03-08T14:07:34;16.37;;;8.40;;
37895;SDS011;23733;53.254;10.430;2024-03-08T14:10:01;12.07;;;7.63;;
37895;SDS011;23733;53.254;10.430;2024-03-08T14:12:27;15.13;;;8.33;;
37895;SDS011;23733;53.254;10.430;2024-03-08T14:14:54;14.77;;;8.43;;
37895;SDS011;23733;53.254;10.430;2024-03-08T14:17:20;12.40;;;7.97;;
37895;SDS011;23733;53.254;10.430;2024-03-08T14:19:46;28.23;;;9.13;;
37895;SDS011;23733;53.254;10.430;2024-03-08T14:22:13;13.63;;;8.27;;
37895;SDS011;23733;53.254;10.430;2024-03-08T14:24:40;14.73;;;8.70;;
37895;SDS011;23733;53.254;10.430;2024-03-08T14:27:08;15.50;;;8.67;;